sensor_id;sensor_type;location;lat;lon;timestamp;P1;durP1;ratioP1;P2;durP2;ratioP2
63693;SDS011;49839;51.798;10.954;2023-02-12T07:50:29;11.25;;;5.90;;
63693;SDS011;49839;51.798;10.954;2023-02-12T07:52:57;12.70;;;6.18;;
63693;SDS011;49839;51.798;10.954;2023-02-12T07:55:24;9.40;;;5.57;;
63693;SDS011;49839;51.798;10.954;2023-02-12T07:57:51;11.63;;;6.13;;
63693;SDS011;49839;51.798;10.954;2023-02-12T08:00:19;13.05;;;6.80;;
63693;SDS011;49839;51.798;10.954;2023-02-12T08:02:50;11.50;;;5.38;;
63693;SDS011;49839;51.798;10.954;2023-02-12T08:05:17;12.68;;;6.47;;
63693;SDS011;49839;51.798;10.954;2023-02-12T08:07:46;12.80;;;6.30;;
63693;SDS011;49839;51.798;10.954;2023-02-12T08:10:13;11.73;;;6.50;;
63693;SDS011;49839;51.798;10.954;2023-02-12T08:12:41;12.38;;;6.57;;
63693;SDS011;49839;51.798;10.954;2023-02-12T08:15:08;13.32;;;7.53;;
63693;SDS011;49839;51.798;10.954;2023-02-12T08:17:36;13.13;;;6.47;;
63693;SDS011;49839;51.798;10.954;2023-02-12T08:20:03;14.13;;;7.60;;
63693;SDS011;49839;51.798;10.954;2023-02-12T08:22:31;13.75;;;7.18;;
63693;SDS011;49839;51.798;10.954;2023-02-12T08:24:59;15.57;;;7.32;;
63693;SDS011;49839;51.798;10.954;2023-02-12T08:27:27;11.95;;;6.20;;
63693;SDS011;49839;51.798;10.954;2023-02-12T08:29:54;13.75;;;7.30;;
63693;SDS011;49839;51.798;10.954;2023-02-12T08:32:21;12.90;;;6.57;;
63693;SDS011;49839;51.798;10.954;2023-02-12T08:34:49;14.35;;;6.85;;
63693;SDS011;49839;51.798;10.954;2023-02-12T08:37:16;12.77;;;6.90;;
63693;SDS011;49839;51.798;10.954;2023-02-12T08:39:43;12.43;;;6.38;;
63693;SDS011;49839;51.798;10.954;2023-02-12T08:42:12;12.82;;;6.35;;
63693;SDS011;49839;51.798;10.954;2023-02-12T08:44:40;13.75;;;7.00;;
63693;SDS011;49839;51.798;10.954;2023-02-12T08:47:08;15.48;;;6.78;;
63693;SDS011;49839;51.798;10.954;2023-02-12T08:49:36;13.38;;;7.45;;
63693;SDS011;49839;51.798;10.954;2023-02-12T08:52:03;12.25;;;6.75;;
63693;SDS011;49839;51.798;10.954;2023-02-12T08:54:31;10.82;;;6.25;;
63693;SDS011;49839;51.798;10.954;2023-02-12T08:57:00;11.57;;;6.18;;
63693;SDS011;49839;51.798;10.954;2023-02-12T08:59:29;11.10;;;6.53;;
63693;SDS011;49839;51.798;10.954;2023-02-12T09:01:59;12.68;;;5.93;;
63693;SDS011;49839;51.798;10.954;2023-02-12T09:04:27;11.52;;;6.22;;
63693;SDS011;49839;51.798;10.954;2023-02-12T09:06:55;11.27;;;6.57;;
63693;SDS011;49839;51.798;10.954;2023-02-12T09:09:22;13.18;;;7.15;;
63693;SDS011;49839;51.798;10.954;2023-02-12T09:11:50;11.82;;;6.20;;
63693;SDS011;49839;51.798;10.954;2023-02-12T09:14:17;11.88;;;6.72;;
63693;SDS011;49839;51.798;10.954;2023-02-12T09:16:50;10.73;;;6.35;;
63693;SDS011;49839;51.798;10.954;2023-02-12T09:19:18;10.43;;;6.28;;
63693;SDS011;49839;51.798;10.954;2023-02-12T09:21:49;11.68;;;6.57;;
63693;SDS011;49839;51.798;10.954;2023-02-12T09:24:20;12.95;;;7.28;;
63693;SDS011;49839;51.798;10.954;2023-02-12T09:26:48;11.18;;;6.55;;
63693;SDS011;49839;51.798;10.954;2023-02-12T09:29:15;11.07;;;6.95;;
63693;SDS011;49839;51.798;10.954;2023-02-12T09:31:42;11.90;;;6.78;;
63693;SDS011;49839;51.798;10.954;2023-02-12T09:34:11;11.02;;;6.35;;
63693;SDS011;49839;51.798;10.954;2023-02-12T09:36:39;11.40;;;6.40;;
63693;SDS011;49839;51.798;10.954;2023-02-12T09:39:06;11.82;;;7.15;;
63693;SDS011;49839;51.798;10.954;2023-02-12T09:52:16;12.35;;;7.15;;
63693;SDS011;49839;51.798;10.954;2023-02-12T10:22:16;10.75;;;5.95;;
63693;SDS011;49839;51.798;10.954;2023-02-12T10:24:47;8.45;;;5.70;;
63693;SDS011;49839;51.798;10.954;2023-02-12T10:27:24;12.32;;;6.90;;
63693;SDS011;49839;51.798;10.954;2023-02-12T10:29:58;9.85;;;6.28;;
63693;SDS011;49839;51.798;10.954;2023-02-12T10:32:27;10.13;;;6.20;;
63693;SDS011;49839;51.798;10.954;2023-02-12T10:34:56;9.48;;;6.75;;
63693;SDS011;49839;51.798;10.954;2023-02-12T10:37:27;9.60;;;6.05;;
63693;SDS011;49839;51.798;10.954;2023-02-12T10:39:59;9.23;;;5.78;;
63693;SDS011;49839;51.798;10.954;2023-02-12T10:42:32;7.50;;;5.28;;
63693;SDS011;49839;51.798;10.954;2023-02-12T10:45:01;9.00;;;5.53;;
63693;SDS011;49839;51.798;10.954;2023-02-12T10:47:28;9.00;;;5.30;;
63693;SDS011;49839;51.798;10.954;2023-02-12T10:49:56;8.65;;;5.15;;
63693;SDS011;49839;51.798;10.954;2023-02-12T10:52:29;7.85;;;5.03;;
63693;SDS011;49839;51.798;10.954;2023-02-12T10:55:00;7.82;;;5.20;;
63693;SDS011;49839;51.798;10.954;2023-02-12T10:57:28;8.38;;;5.28;;
63693;SDS011;49839;51.798;10.954;2023-02-12T10:59:56;9.07;;;5.88;;
63693;SDS011;49839;51.798;10.954;2023-02-12T11:02:40;7.75;;;5.40;;
63693;SDS011;49839;51.798;10.954;2023-02-12T11:05:25;8.18;;;5.57;;
63693;SDS011;49839;51.798;10.954;2023-02-12T11:07:56;9.50;;;5.80;;
63693;SDS011;49839;51.798;10.954;2023-02-12T11:10:28;8.98;;;5.43;;
63693;SDS011;49839;51.798;10.954;2023-02-12T11:12:57;8.05;;;5.40;;
63693;SDS011;49839;51.798;10.954;2023-02-12T11:15:25;8.15;;;5.60;;
63693;SDS011;49839;51.798;10.954;2023-02-12T11:17:56;7.57;;;4.70;;
63693;SDS011;49839;51.798;10.954;2023-02-12T11:20:25;8.55;;;4.80;;
63693;SDS011;49839;51.798;10.954;2023-02-12T11:22:55;8.23;;;5.15;;
63693;SDS011;49839;51.798;10.954;2023-02-12T11:25:26;8.10;;;5.17;;
63693;SDS011;49839;51.798;10.954;2023-02-12T11:28:13;6.18;;;3.88;;
63693;SDS011;49839;51.798;10.954;2023-02-12T11:30:54;8.98;;;4.40;;
63693;SDS011;49839;51.798;10.954;2023-02-12T11:33:23;7.93;;;4.18;;
63693;SDS011;49839;51.798;10.954;2023-02-12T11:35:51;9.00;;;5.10;;
63693;SDS011;49839;51.798;10.954;2023-02-12T11:38:21;9.40;;;5.70;;
63693;SDS011;49839;51.798;10.954;2023-02-12T11:40:51;9.60;;;5.90;;
63693;SDS011;49839;51.798;10.954;2023-02-12T11:43:19;9.50;;;5.22;;
63693;SDS011;49839;51.798;10.954;2023-02-12T11:45:47;8.68;;;5.28;;
63693;SDS011;49839;51.798;10.954;2023-02-12T11:48:18;8.77;;;4.38;;
63693;SDS011;49839;51.798;10.954;2023-02-12T11:50:45;9.25;;;5.70;;
63693;SDS011;49839;51.798;10.954;2023-02-12T11:53:18;8.57;;;5.57;;
63693;SDS011;49839;51.798;10.954;2023-02-12T11:55:52;9.77;;;6.28;;
63693;SDS011;49839;51.798;10.954;2023-02-12T11:58:21;8.40;;;5.28;;
63693;SDS011;49839;51.798;10.954;2023-02-12T12:00:50;9.25;;;5.30;;
63693;SDS011;49839;51.798;10.954;2023-02-12T12:03:20;9.20;;;5.47;;
63693;SDS011;49839;51.798;10.954;2023-02-12T12:05:50;9.50;;;4.93;;
63693;SDS011;49839;51.798;10.954;2023-02-12T12:08:19;9.33;;;5.53;;
63693;SDS011;49839;51.798;10.954;2023-02-12T12:10:48;9.93;;;5.63;;
63693;SDS011;49839;51.798;10.954;2023-02-12T12:13:22;8.20;;;5.13;;
63693;SDS011;49839;51.798;10.954;2023-02-12T12:16:02;8.25;;;4.35;;
63693;SDS011;49839;51.798;10.954;2023-02-12T12:18:49;8.52;;;4.55;;
63693;SDS011;49839;51.798;10.954;2023-02-12T12:21:37;7.72;;;4.13;;
63693;SDS011;49839;51.798;10.954;2023-02-12T12:24:08;8.55;;;4.80;;
63693;SDS011;49839;51.798;10.954;2023-02-12T12:26:37;7.25;;;3.53;;
63693;SDS011;49839;51.798;10.954;2023-02-12T12:29:12;7.18;;;3.42;;
63693;SDS011;49839;51.798;10.954;2023-02-12T12:31:42;8.77;;;4.03;;
63693;SDS011;49839;51.798;10.954;2023-02-12T12:34:10;9.60;;;4.50;;
63693;SDS011;49839;51.798;10.954;2023-02-12T12:36:59;9.60;;;4.38;;
63693;SDS011;49839;51.798;10.954;2023-02-12T12:39:31;9.52;;;4.65;;
63693;SDS011;49839;51.798;10.954;2023-02-12T12:42:06;8.40;;;4.45;;
63693;SDS011;49839;51.798;10.954;2023-02-12T12:44:41;10.82;;;5.63;;
63693;SDS011;49839;51.798;10.954;2023-02-12T12:47:15;7.88;;;4.68;;
63693;SDS011;49839;51.798;10.954;2023-02-12T12:49:51;8.50;;;5.57;;
63693;SDS011;49839;51.798;10.954;2023-02-12T12:52:26;9.63;;;5.25;;
63693;SDS011;49839;51.798;10.954;2023-02-12T12:55:01;12.15;;;6.25;;
63693;SDS011;49839;51.798;10.954;2023-02-12T12:57:36;10.02;;;6.13;;
63693;SDS011;49839;51.798;10.954;2023-02-12T13:00:18;13.00;;;7.80;;
63693;SDS011;49839;51.798;10.954;2023-02-12T13:02:58;12.00;;;7.28;;
63693;SDS011;49839;51.798;10.954;2023-02-12T13:05:40;14.20;;;10.98;;
63693;SDS011;49839;51.798;10.954;2023-02-12T13:08:16;11.50;;;7.88;;
63693;SDS011;49839;51.798;10.954;2023-02-12T13:10:46;10.43;;;6.78;;
63693;SDS011;49839;51.798;10.954;2023-02-12T13:13:19;12.00;;;7.40;;
63693;SDS011;49839;51.798;10.954;2023-02-12T13:15:55;11.48;;;6.82;;
63693;SDS011;49839;51.798;10.954;2023-02-12T13:18:27;13.18;;;7.72;;
63693;SDS011;49839;51.798;10.954;2023-02-12T13:20:59;11.98;;;7.70;;
63693;SDS011;49839;51.798;10.954;2023-02-12T13:23:34;12.63;;;8.15;;
63693;SDS011;49839;51.798;10.954;2023-02-12T13:26:03;14.15;;;8.23;;
63693;SDS011;49839;51.798;10.954;2023-02-12T13:28:34;10.80;;;7.57;;
63693;SDS011;49839;51.798;10.954;2023-02-12T13:31:06;11.05;;;7.93;;
63693;SDS011;49839;51.798;10.954;2023-02-12T13:33:55;12.98;;;8.25;;
63693;SDS011;49839;51.798;10.954;2023-02-12T13:36:23;11.50;;;7.28;;
63693;SDS011;49839;51.798;10.954;2023-02-12T13:38:53;11.93;;;7.22;;
63693;SDS011;49839;51.798;10.954;2023-02-12T13:41:22;10.57;;;6.63;;
63693;SDS011;49839;51.798;10.954;2023-02-12T13:43:54;10.88;;;7.20;;
63693;SDS011;49839;51.798;10.954;2023-02-12T13:46:30;10.18;;;7.20;;
63693;SDS011;49839;51.798;10.954;2023-02-12T13:49:04;10.30;;;7.03;;
63693;SDS011;49839;51.798;10.954;2023-02-12T13:51:36;10.25;;;7.30;;
63693;SDS011;49839;51.798;10.954;2023-02-12T13:54:16;12.27;;;7.70;;
63693;SDS011;49839;51.798;10.954;2023-02-12T13:56:47;9.68;;;6.18;;
63693;SDS011;49839;51.798;10.954;2023-02-12T14:02:03;11.05;;;6.80;;
63693;SDS011;49839;51.798;10.954;2023-02-12T14:04:31;11.77;;;6.78;;
63693;SDS011;49839;51.798;10.954;2023-02-12T14:07:00;10.48;;;6.82;;
63693;SDS011;49839;51.798;10.954;2023-02-12T14:09:31;10.43;;;6.57;;
63693;SDS011;49839;51.798;10.954;2023-02-12T14:12:02;8.98;;;6.20;;
63693;SDS011;49839;51.798;10.954;2023-02-12T14:14:31;10.40;;;5.60;;
63693;SDS011;49839;51.798;10.954;2023-02-12T14:19:53;8.68;;;5.55;;
63693;SDS011;49839;51.798;10.954;2023-02-12T14:27:50;9.82;;;5.85;;
63693;SDS011;49839;51.798;10.954;2023-02-12T14:30:27;10.10;;;6.45;;
63693;SDS011;49839;51.798;10.954;2023-02-12T14:32:56;8.68;;;5.82;;
63693;SDS011;49839;51.798;10.954;2023-02-12T14:35:31;8.57;;;5.53;;
63693;SDS011;49839;51.798;10.954;2023-02-12T14:38:02;9.25;;;6.20;;
63693;SDS011;49839;51.798;10.954;2023-02-12T14:40:37;8.85;;;5.75;;
63693;SDS011;49839;51.798;10.954;2023-02-12T14:43:26;10.32;;;5.82;;
63693;SDS011;49839;51.798;10.954;2023-02-12T14:45:54;10.63;;;6.45;;
63693;SDS011;49839;51.798;10.954;2023-02-12T14:48:39;10.55;;;5.90;;
63693;SDS011;49839;51.798;10.954;2023-02-12T14:51:09;8.77;;;5.68;;
63693;SDS011;49839;51.798;10.954;2023-02-12T15:20:43;9.32;;;6.07;;
63693;SDS011;49839;51.798;10.954;2023-02-12T16:11:34;10.73;;;5.95;;
63693;SDS011;49839;51.798;10.954;2023-02-12T16:32:55;9.48;;;5.80;;
63693;SDS011;49839;51.798;10.954;2023-02-12T16:35:26;10.98;;;6.10;;
63693;SDS011;49839;51.798;10.954;2023-02-12T16:37:59;12.57;;;6.15;;
63693;SDS011;49839;51.798;10.954;2023-02-12T16:40:28;11.23;;;6.10;;
63693;SDS011;49839;51.798;10.954;2023-02-12T17:15:22;9.05;;;5.22;;
63693;SDS011;49839;51.798;10.954;2023-02-12T17:25:56;7.07;;;3.35;;
63693;SDS011;49839;51.798;10.954;2023-02-12T17:28:24;6.80;;;3.53;;
63693;SDS011;49839;51.798;10.954;2023-02-12T17:30:53;7.13;;;3.80;;
63693;SDS011;49839;51.798;10.954;2023-02-12T17:33:21;6.93;;;3.63;;
63693;SDS011;49839;51.798;10.954;2023-02-12T17:35:49;6.13;;;3.30;;
63693;SDS011;49839;51.798;10.954;2023-02-12T17:38:16;7.85;;;4.10;;
63693;SDS011;49839;51.798;10.954;2023-02-12T17:40:43;7.03;;;3.65;;
63693;SDS011;49839;51.798;10.954;2023-02-12T17:43:11;6.72;;;3.45;;
63693;SDS011;49839;51.798;10.954;2023-02-12T17:45:39;7.45;;;3.47;;
63693;SDS011;49839;51.798;10.954;2023-02-12T17:48:09;5.75;;;3.33;;
63693;SDS011;49839;51.798;10.954;2023-02-12T17:50:37;8.45;;;3.97;;
63693;SDS011;49839;51.798;10.954;2023-02-12T17:53:04;7.82;;;4.07;;
63693;SDS011;49839;51.798;10.954;2023-02-12T17:55:32;9.63;;;5.15;;
63693;SDS011;49839;51.798;10.954;2023-02-12T17:57:59;8.50;;;4.50;;
63693;SDS011;49839;51.798;10.954;2023-02-12T18:00:28;9.43;;;5.00;;
63693;SDS011;49839;51.798;10.954;2023-02-12T18:02:56;13.23;;;5.93;;
63693;SDS011;49839;51.798;10.954;2023-02-12T18:05:24;10.80;;;5.63;;
63693;SDS011;49839;51.798;10.954;2023-02-12T18:07:52;10.52;;;5.13;;
63693;SDS011;49839;51.798;10.954;2023-02-12T18:10:19;10.57;;;5.63;;
63693;SDS011;49839;51.798;10.954;2023-02-12T18:12:47;9.68;;;5.00;;
63693;SDS011;49839;51.798;10.954;2023-02-12T18:15:14;8.05;;;4.40;;
63693;SDS011;49839;51.798;10.954;2023-02-12T18:17:41;7.03;;;3.58;;
63693;SDS011;49839;51.798;10.954;2023-02-12T18:20:09;8.13;;;4.38;;
63693;SDS011;49839;51.798;10.954;2023-02-12T18:22:38;10.35;;;5.30;;
63693;SDS011;49839;51.798;10.954;2023-02-12T18:25:06;9.82;;;5.15;;
63693;SDS011;49839;51.798;10.954;2023-02-12T18:27:33;9.13;;;5.30;;
63693;SDS011;49839;51.798;10.954;2023-02-12T18:30:01;10.25;;;6.75;;
63693;SDS011;49839;51.798;10.954;2023-02-12T18:32:28;11.77;;;6.93;;
63693;SDS011;49839;51.798;10.954;2023-02-12T18:34:56;10.45;;;6.22;;
63693;SDS011;49839;51.798;10.954;2023-02-12T18:37:23;11.65;;;6.82;;
63693;SDS011;49839;51.798;10.954;2023-02-12T18:39:52;13.38;;;7.47;;
63693;SDS011;49839;51.798;10.954;2023-02-12T18:42:19;15.02;;;7.45;;
63693;SDS011;49839;51.798;10.954;2023-02-12T18:44:46;10.35;;;6.35;;
63693;SDS011;49839;51.798;10.954;2023-02-12T18:47:14;11.60;;;6.68;;
63693;SDS011;49839;51.798;10.954;2023-02-12T19:03:15;13.77;;;8.93;;
63693;SDS011;49839;51.798;10.954;2023-02-12T19:05:43;14.82;;;8.73;;
63693;SDS011;49839;51.798;10.954;2023-02-12T19:08:12;16.55;;;9.57;;
63693;SDS011;49839;51.798;10.954;2023-02-12T19:10:40;15.65;;;8.60;;
63693;SDS011;49839;51.798;10.954;2023-02-12T19:13:08;15.00;;;9.75;;
63693;SDS011;49839;51.798;10.954;2023-02-12T19:15:36;17.58;;;9.82;;
63693;SDS011;49839;51.798;10.954;2023-02-12T19:18:04;15.35;;;9.70;;
63693;SDS011;49839;51.798;10.954;2023-02-12T19:20:33;15.50;;;9.18;;
63693;SDS011;49839;51.798;10.954;2023-02-12T19:23:00;17.75;;;8.60;;
63693;SDS011;49839;51.798;10.954;2023-02-12T19:25:28;14.40;;;8.45;;
63693;SDS011;49839;51.798;10.954;2023-02-12T19:27:55;14.43;;;8.18;;
63693;SDS011;49839;51.798;10.954;2023-02-12T19:30:23;14.50;;;8.25;;
63693;SDS011;49839;51.798;10.954;2023-02-12T19:32:53;15.80;;;8.52;;
63693;SDS011;49839;51.798;10.954;2023-02-12T19:37:51;17.27;;;9.57;;
63693;SDS011;49839;51.798;10.954;2023-02-12T19:40:20;15.57;;;9.18;;
63693;SDS011;49839;51.798;10.954;2023-02-12T19:42:49;15.35;;;9.48;;
63693;SDS011;49839;51.798;10.954;2023-02-12T19:45:16;15.38;;;9.10;;
63693;SDS011;49839;51.798;10.954;2023-02-12T19:47:43;16.95;;;8.23;;
63693;SDS011;49839;51.798;10.954;2023-02-12T19:50:16;13.05;;;7.78;;
63693;SDS011;49839;51.798;10.954;2023-02-12T19:52:43;9.70;;;5.95;;
63693;SDS011;49839;51.798;10.954;2023-02-12T19:55:12;10.25;;;5.47;;
63693;SDS011;49839;51.798;10.954;2023-02-12T19:57:42;9.68;;;5.43;;
63693;SDS011;49839;51.798;10.954;2023-02-12T20:00:16;9.35;;;5.13;;
63693;SDS011;49839;51.798;10.954;2023-02-12T20:05:10;11.20;;;4.93;;
63693;SDS011;49839;51.798;10.954;2023-02-12T20:07:38;9.95;;;5.25;;
63693;SDS011;49839;51.798;10.954;2023-02-12T20:10:05;9.88;;;5.40;;
63693;SDS011;49839;51.798;10.954;2023-02-12T20:12:34;8.82;;;4.43;;
63693;SDS011;49839;51.798;10.954;2023-02-12T20:15:05;9.13;;;4.50;;
63693;SDS011;49839;51.798;10.954;2023-02-12T20:17:32;8.30;;;4.38;;
63693;SDS011;49839;51.798;10.954;2023-02-12T20:20:01;8.82;;;4.82;;
63693;SDS011;49839;51.798;10.954;2023-02-12T20:22:28;8.95;;;4.63;;
63693;SDS011;49839;51.798;10.954;2023-02-12T20:24:58;9.30;;;4.35;;
63693;SDS011;49839;51.798;10.954;2023-02-12T20:27:28;8.32;;;4.53;;
63693;SDS011;49839;51.798;10.954;2023-02-12T20:30:01;7.25;;;3.90;;
63693;SDS011;49839;51.798;10.954;2023-02-12T20:32:28;9.65;;;4.30;;
63693;SDS011;49839;51.798;10.954;2023-02-12T20:34:55;8.32;;;4.40;;
63693;SDS011;49839;51.798;10.954;2023-02-12T20:37:23;8.68;;;4.45;;
63693;SDS011;49839;51.798;10.954;2023-02-12T20:39:54;7.10;;;3.90;;
63693;SDS011;49839;51.798;10.954;2023-02-12T20:44:49;8.25;;;3.70;;
63693;SDS011;49839;51.798;10.954;2023-02-12T20:47:20;9.30;;;4.18;;
63693;SDS011;49839;51.798;10.954;2023-02-12T20:49:53;8.40;;;3.88;;
63693;SDS011;49839;51.798;10.954;2023-02-12T20:52:21;7.43;;;4.15;;
63693;SDS011;49839;51.798;10.954;2023-02-12T20:54:48;7.28;;;3.40;;
63693;SDS011;49839;51.798;10.954;2023-02-12T20:57:16;7.43;;;3.50;;
63693;SDS011;49839;51.798;10.954;2023-02-12T20:59:43;6.53;;;3.40;;
63693;SDS011;49839;51.798;10.954;2023-02-12T21:02:11;7.55;;;3.90;;
63693;SDS011;49839;51.798;10.954;2023-02-12T21:04:39;8.05;;;4.40;;
63693;SDS011;49839;51.798;10.954;2023-02-12T21:07:07;10.65;;;5.00;;
63693;SDS011;49839;51.798;10.954;2023-02-12T21:09:34;7.53;;;3.85;;
63693;SDS011;49839;51.798;10.954;2023-02-12T21:12:01;6.75;;;3.90;;
63693;SDS011;49839;51.798;10.954;2023-02-12T21:14:29;7.70;;;4.22;;
63693;SDS011;49839;51.798;10.954;2023-02-12T21:16:56;8.65;;;4.45;;
63693;SDS011;49839;51.798;10.954;2023-02-12T21:19:24;7.53;;;4.25;;
63693;SDS011;49839;51.798;10.954;2023-02-12T21:21:53;8.40;;;4.57;;
63693;SDS011;49839;51.798;10.954;2023-02-12T21:24:21;10.83;;;4.77;;
63693;SDS011;49839;51.798;10.954;2023-02-12T21:26:49;10.73;;;4.47;;
63693;SDS011;49839;51.798;10.954;2023-02-12T21:29:16;10.32;;;5.13;;
63693;SDS011;49839;51.798;10.954;2023-02-12T21:31:44;8.55;;;4.53;;
63693;SDS011;49839;51.798;10.954;2023-02-12T21:34:13;9.65;;;4.95;;
63693;SDS011;49839;51.798;10.954;2023-02-12T21:36:41;7.75;;;4.18;;
63693;SDS011;49839;51.798;10.954;2023-02-12T21:39:12;9.23;;;4.28;;
63693;SDS011;49839;51.798;10.954;2023-02-12T21:41:40;9.27;;;4.30;;
63693;SDS011;49839;51.798;10.954;2023-02-12T21:44:09;8.30;;;4.78;;
63693;SDS011;49839;51.798;10.954;2023-02-12T21:46:37;10.45;;;4.97;;
63693;SDS011;49839;51.798;10.954;2023-02-12T21:49:05;9.07;;;4.47;;
63693;SDS011;49839;51.798;10.954;2023-02-12T21:51:34;8.40;;;4.75;;
63693;SDS011;49839;51.798;10.954;2023-02-12T21:54:03;9.77;;;4.35;;
63693;SDS011;49839;51.798;10.954;2023-02-12T21:56:32;9.65;;;4.55;;
63693;SDS011;49839;51.798;10.954;2023-02-12T21:58:59;8.77;;;4.47;;
63693;SDS011;49839;51.798;10.954;2023-02-12T22:01:27;9.40;;;4.40;;
63693;SDS011;49839;51.798;10.954;2023-02-12T22:03:58;9.32;;;4.47;;
63693;SDS011;49839;51.798;10.954;2023-02-12T22:06:26;9.25;;;4.75;;
63693;SDS011;49839;51.798;10.954;2023-02-12T22:08:54;11.48;;;4.78;;
63693;SDS011;49839;51.798;10.954;2023-02-12T22:11:21;11.05;;;4.65;;
63693;SDS011;49839;51.798;10.954;2023-02-12T22:13:50;10.93;;;5.18;;
63693;SDS011;49839;51.798;10.954;2023-02-12T22:16:18;11.38;;;5.13;;
63693;SDS011;49839;51.798;10.954;2023-02-12T22:18:46;10.93;;;5.15;;
63693;SDS011;49839;51.798;10.954;2023-02-12T22:21:15;10.85;;;5.38;;
63693;SDS011;49839;51.798;10.954;2023-02-12T22:23:42;10.65;;;5.15;;
63693;SDS011;49839;51.798;10.954;2023-02-12T22:26:11;12.65;;;5.57;;
63693;SDS011;49839;51.798;10.954;2023-02-12T22:28:39;13.02;;;5.25;;
63693;SDS011;49839;51.798;10.954;2023-02-12T22:31:08;11.15;;;5.18;;
63693;SDS011;49839;51.798;10.954;2023-02-12T22:33:35;12.77;;;5.25;;
63693;SDS011;49839;51.798;10.954;2023-02-12T22:36:03;12.30;;;5.70;;
63693;SDS011;49839;51.798;10.954;2023-02-12T22:38:31;11.43;;;5.55;;
63693;SDS011;49839;51.798;10.954;2023-02-12T22:40:59;10.60;;;5.45;;
63693;SDS011;49839;51.798;10.954;2023-02-12T22:43:27;11.10;;;4.95;;
63693;SDS011;49839;51.798;10.954;2023-02-12T22:45:54;11.73;;;5.22;;
63693;SDS011;49839;51.798;10.954;2023-02-12T22:48:23;9.68;;;4.80;;
63693;SDS011;49839;51.798;10.954;2023-02-12T22:50:51;10.63;;;4.87;;
63693;SDS011;49839;51.798;10.954;2023-02-12T22:53:18;13.52;;;6.25;;
63693;SDS011;49839;51.798;10.954;2023-02-12T22:55:46;16.08;;;6.05;;
63693;SDS011;49839;51.798;10.954;2023-02-12T22:58:13;13.00;;;6.40;;
63693;SDS011;49839;51.798;10.954;2023-02-12T23:00:41;14.10;;;6.55;;
63693;SDS011;49839;51.798;10.954;2023-02-12T23:03:09;14.02;;;6.68;;
63693;SDS011;49839;51.798;10.954;2023-02-12T23:05:37;15.30;;;6.90;;
63693;SDS011;49839;51.798;10.954;2023-02-12T23:08:05;16.10;;;6.97;;
63693;SDS011;49839;51.798;10.954;2023-02-12T23:10:32;15.77;;;7.05;;
63693;SDS011;49839;51.798;10.954;2023-02-12T23:13:00;13.40;;;6.28;;
63693;SDS011;49839;51.798;10.954;2023-02-12T23:15:27;12.43;;;6.15;;
63693;SDS011;49839;51.798;10.954;2023-02-12T23:17:55;10.73;;;5.05;;
63693;SDS011;49839;51.798;10.954;2023-02-12T23:20:22;9.05;;;4.63;;
63693;SDS011;49839;51.798;10.954;2023-02-12T23:22:51;7.95;;;3.85;;
63693;SDS011;49839;51.798;10.954;2023-02-12T23:25:18;7.65;;;4.07;;
63693;SDS011;49839;51.798;10.954;2023-02-12T23:27:46;7.80;;;3.67;;
63693;SDS011;49839;51.798;10.954;2023-02-12T23:30:13;9.40;;;3.95;;
63693;SDS011;49839;51.798;10.954;2023-02-12T23:32:41;10.02;;;3.97;;
63693;SDS011;49839;51.798;10.954;2023-02-12T23:35:08;9.57;;;4.32;;
63693;SDS011;49839;51.798;10.954;2023-02-12T23:37:36;9.80;;;4.68;;
63693;SDS011;49839;51.798;10.954;2023-02-12T23:40:05;11.60;;;4.80;;
63693;SDS011;49839;51.798;10.954;2023-02-12T23:42:33;11.75;;;4.63;;
63693;SDS011;49839;51.798;10.954;2023-02-12T23:45:00;8.63;;;3.95;;
63693;SDS011;49839;51.798;10.954;2023-02-12T23:47:28;10.38;;;4.38;;
63693;SDS011;49839;51.798;10.954;2023-02-12T23:49:55;8.85;;;4.53;;
63693;SDS011;49839;51.798;10.954;2023-02-12T23:52:22;8.98;;;4.47;;
63693;SDS011;49839;51.798;10.954;2023-02-12T23:54:50;8.95;;;4.63;;
63693;SDS011;49839;51.798;10.954;2023-02-12T23:57:18;9.45;;;4.32;;
63693;SDS011;49839;51.798;10.954;2023-02-12T23:59:46;7.03;;;3.42;;
